createdAt,value
2022-10-28T00:01:18.438Z,49.07
2022-10-28T00:03:46.376Z,45.97
2022-10-28T00:06:24.331Z,45.67
2022-10-28T00:08:51.379Z,45.17
2022-10-28T00:11:19.305Z,41.77
2022-10-28T00:13:46.367Z,46.50
2022-10-28T00:16:13.515Z,48.03
2022-10-28T00:18:40.525Z,46.33
2022-10-28T00:21:09.862Z,48.90
2022-10-28T00:23:36.817Z,50.13
2022-10-28T00:26:04.501Z,45.03
2022-10-28T00:28:31.258Z,47.47
2022-10-28T00:31:03.020Z,45.13
2022-10-28T00:33:29.848Z,52.60
2022-10-28T00:35:56.578Z,49.50
2022-10-28T00:38:23.472Z,50.20
2022-10-28T00:40:50.236Z,44.30
2022-10-28T00:43:17.047Z,51.03
2022-10-28T00:45:43.968Z,46.10
2022-10-28T00:48:10.847Z,48.10
2022-10-28T00:50:46.955Z,43.90
2022-10-28T00:53:22.465Z,49.23
2022-10-28T00:55:50.155Z,45.40
2022-10-28T00:58:17.922Z,43.53
2022-10-28T01:00:44.750Z,45.53
2022-10-28T01:03:11.578Z,43.33
2022-10-28T01:05:40.232Z,42.77
2022-10-28T01:08:07.456Z,41.27
2022-10-28T01:10:52.714Z,51.53
2022-10-28T01:13:38.311Z,47.40
2022-10-28T01:16:17.385Z,48.37
2022-10-28T01:19:01.092Z,42.97
2022-10-28T01:21:42.869Z,46.03
2022-10-28T01:24:10.006Z,43.67
2022-10-28T01:26:59.309Z,46.43
2022-10-28T01:29:29.137Z,45.03
2022-10-28T01:32:03.388Z,44.50
2022-10-28T01:34:41.110Z,43.63
2022-10-28T01:37:08.008Z,48.23
2022-10-28T01:39:37.706Z,46.97
2022-10-28T01:42:04.496Z,41.90
2022-10-28T01:44:34.411Z,49.53
2022-10-28T01:47:13.091Z,43.93
2022-10-28T01:50:01.813Z,48.33
2022-10-28T01:52:30.397Z,42.27
2022-10-28T01:55:10.853Z,45.63
2022-10-28T01:57:39.180Z,50.03
2022-10-28T02:00:06.209Z,42.20
2022-10-28T02:02:39.905Z,43.37
2022-10-28T02:05:26.770Z,49.80
2022-10-28T02:07:57.320Z,45.57
2022-10-28T02:10:25.261Z,41.77
2022-10-28T02:12:54.735Z,43.23
2022-10-28T02:15:24.774Z,37.00
2022-10-28T02:18:02.253Z,40.93
2022-10-28T02:20:29.052Z,40.83
2022-10-28T02:23:00.839Z,44.73
2022-10-28T02:25:33.943Z,44.87
2022-10-28T02:30:58.216Z,42.53
2022-10-28T02:33:27.119Z,44.73
2022-10-28T02:36:11.924Z,40.87
2022-10-28T02:38:40.430Z,49.77
2022-10-28T02:41:11.515Z,43.83
2022-10-28T02:43:40.728Z,48.33
2022-10-28T02:46:08.225Z,45.37
2022-10-28T02:48:35.058Z,47.90
2022-10-28T02:51:12.634Z,41.37
2022-10-28T02:53:58.113Z,39.70
2022-10-28T02:56:25.026Z,42.20
2022-10-28T02:58:52.043Z,44.87
2022-10-28T03:01:18.978Z,39.17
2022-10-28T03:03:46.012Z,44.87
2022-10-28T03:06:12.882Z,45.17
2022-10-28T03:08:39.778Z,40.63
2022-10-28T03:11:06.577Z,40.63
2022-10-28T03:13:33.381Z,42.90
2022-10-28T03:16:00.204Z,41.43
2022-10-28T03:18:27.171Z,40.23
2022-10-28T03:20:56.676Z,42.57
2022-10-28T03:23:25.739Z,42.03
2022-10-28T03:25:52.562Z,39.43
2022-10-28T03:28:19.430Z,37.47
2022-10-28T03:30:46.235Z,34.90
2022-10-28T03:33:13.162Z,32.70
2022-10-28T03:35:40.006Z,36.57
2022-10-28T03:38:06.751Z,35.07
2022-10-28T03:40:34.509Z,33.13
2022-10-28T03:43:01.373Z,39.10
2022-10-28T03:47:59.941Z,40.53
2022-10-28T03:50:26.729Z,36.03
2022-10-28T03:52:53.575Z,39.07
2022-10-28T03:55:20.388Z,34.67
2022-10-28T03:57:47.245Z,36.43
2022-10-28T04:00:14.462Z,37.23
2022-10-28T04:02:41.304Z,36.90
2022-10-28T04:05:08.234Z,34.80
2022-10-28T04:07:35.168Z,35.03
2022-10-28T04:10:02.087Z,34.00
2022-10-28T04:12:28.887Z,38.13
2022-10-28T04:14:55.700Z,35.93
2022-10-28T04:17:22.518Z,43.33
2022-10-28T04:19:49.347Z,45.00
2022-10-28T04:22:16.279Z,50.87
2022-10-28T04:24:43.158Z,36.77
2022-10-28T04:27:09.901Z,43.30
2022-10-28T04:29:36.797Z,38.77
2022-10-28T04:32:03.912Z,40.17
2022-10-28T04:34:30.717Z,42.13
2022-10-28T04:36:57.461Z,39.50
2022-10-28T04:39:24.366Z,41.17
2022-10-28T04:41:51.110Z,41.07
2022-10-28T04:44:17.953Z,37.53
2022-10-28T04:46:44.784Z,40.47
2022-10-28T04:49:11.686Z,43.53
2022-10-28T04:51:38.584Z,40.83
2022-10-28T04:54:05.553Z,36.83
2022-10-28T04:56:33.455Z,36.20
2022-10-28T04:59:00.689Z,29.50
2022-10-28T05:01:27.704Z,27.53
2022-10-28T05:03:54.741Z,28.03
2022-10-28T05:06:21.536Z,31.40
2022-10-28T05:08:48.311Z,33.10
2022-10-28T05:11:15.296Z,30.70
2022-10-28T05:13:42.075Z,30.37
2022-10-28T05:16:08.858Z,29.17
2022-10-28T05:18:35.782Z,32.47
2022-10-28T05:21:02.725Z,28.47
2022-10-28T05:23:30.800Z,36.70
2022-10-28T05:25:58.109Z,30.80
2022-10-28T05:28:24.934Z,28.30
2022-10-28T05:30:51.728Z,29.27
2022-10-28T05:33:18.581Z,23.87
2022-10-28T05:35:45.462Z,26.07
2022-10-28T05:38:12.266Z,29.07
2022-10-28T05:40:39.221Z,26.23
2022-10-28T05:43:06.088Z,25.00
2022-10-28T05:45:33.023Z,23.63
2022-10-28T05:47:59.796Z,25.40
2022-10-28T05:50:26.748Z,24.30
2022-10-28T05:52:55.406Z,20.43
2022-10-28T05:55:23.833Z,23.07
2022-10-28T05:57:51.980Z,28.10
2022-10-28T06:00:20.221Z,22.50
2022-10-28T06:02:47.105Z,22.07
2022-10-28T06:05:13.910Z,22.40
2022-10-28T06:07:41.238Z,23.57
2022-10-28T06:10:09.054Z,21.07
2022-10-28T06:15:06.804Z,21.87
2022-10-28T06:17:33.556Z,25.73
2022-10-28T06:20:00.815Z,20.57
2022-10-28T06:22:27.651Z,18.90
2022-10-28T06:24:54.470Z,20.67
2022-10-28T06:27:21.220Z,18.93
2022-10-28T06:29:48.045Z,20.03
2022-10-28T06:32:14.934Z,20.43
2022-10-28T06:34:41.870Z,21.03
2022-10-28T06:37:09.576Z,21.97
2022-10-28T06:39:39.429Z,20.20
2022-10-28T06:42:06.856Z,19.87
2022-10-28T06:44:33.618Z,21.47
2022-10-28T06:47:01.988Z,19.30
2022-10-28T06:49:29.336Z,19.00
2022-10-28T06:51:56.208Z,17.17
2022-10-28T06:54:22.983Z,18.87
2022-10-28T06:56:49.999Z,19.27
2022-10-28T06:59:16.828Z,16.17
2022-10-28T07:01:44.135Z,17.93
2022-10-28T07:04:14.298Z,16.00
2022-10-28T07:06:41.531Z,17.27
2022-10-28T07:09:09.674Z,19.80
2022-10-28T07:11:36.421Z,21.50
2022-10-28T07:14:03.243Z,18.17
2022-10-28T07:16:30.059Z,20.20
2022-10-28T07:18:56.977Z,19.93
2022-10-28T07:21:28.558Z,20.70
2022-10-28T07:23:58.487Z,17.10
2022-10-28T07:26:25.586Z,16.10
2022-10-28T07:28:52.614Z,15.23
2022-10-28T07:31:19.438Z,16.70
2022-10-28T07:33:52.189Z,16.43
2022-10-28T07:36:19.026Z,14.53
2022-10-28T07:38:48.451Z,15.93
2022-10-28T07:41:15.201Z,16.13
2022-10-28T07:43:42.024Z,18.60
2022-10-28T07:46:09.154Z,18.77
2022-10-28T07:48:36.971Z,15.20
2022-10-28T07:51:05.321Z,16.03
2022-10-28T07:53:32.422Z,18.97
2022-10-28T07:56:01.344Z,16.10
2022-10-28T07:58:28.615Z,15.83
2022-10-28T08:00:55.692Z,18.07
2022-10-28T08:03:23.799Z,17.70
2022-10-28T08:05:59.667Z,16.30
2022-10-28T08:08:26.503Z,14.90
2022-10-28T08:10:53.398Z,16.97
2022-10-28T08:13:20.260Z,17.77
2022-10-28T08:15:55.967Z,14.90
2022-10-28T08:18:22.790Z,15.63
2022-10-28T08:20:49.604Z,21.97
2022-10-28T08:23:16.496Z,17.67
2022-10-28T08:25:53.034Z,17.53
2022-10-28T08:28:19.963Z,16.13
2022-10-28T08:30:57.227Z,14.13
2022-10-28T08:33:33.887Z,13.13
2022-10-28T08:36:00.696Z,15.90
2022-10-28T08:38:27.844Z,15.03
2022-10-28T08:41:19.401Z,14.33
2022-10-28T08:44:09.255Z,16.87
2022-10-28T08:46:36.162Z,19.10
2022-10-28T08:49:04.086Z,13.40
2022-10-28T08:51:30.839Z,16.57
2022-10-28T08:54:00.397Z,13.63
2022-10-28T08:56:30.329Z,12.93
2022-10-28T08:59:00.525Z,13.37
2022-10-28T09:01:46.437Z,13.73
2022-10-28T09:04:20.352Z,11.57
2022-10-28T09:06:47.193Z,13.80
2022-10-28T09:09:21.575Z,10.47
2022-10-28T09:11:52.117Z,13.27
2022-10-28T09:14:18.957Z,11.10
2022-10-28T09:16:49.936Z,9.63
2022-10-28T09:19:19.850Z,11.53
2022-10-28T09:22:03.530Z,7.63
2022-10-28T09:24:37.863Z,11.77
2022-10-28T09:27:23.654Z,13.23
2022-10-28T09:29:55.423Z,14.87
2022-10-28T09:32:22.187Z,14.37
2022-10-28T09:34:51.733Z,10.90
2022-10-28T09:37:29.661Z,10.23
2022-10-28T09:40:16.703Z,8.80
2022-10-28T09:42:50.986Z,10.77
2022-10-28T09:45:19.984Z,11.20
2022-10-28T09:47:52.037Z,9.63
2022-10-28T09:50:21.233Z,7.93
2022-10-28T09:52:53.917Z,8.27
2022-10-28T09:55:22.209Z,8.33
2022-10-28T09:57:49.208Z,9.80
2022-10-28T10:00:16.970Z,9.70
2022-10-28T10:02:44.840Z,8.07
2022-10-28T10:05:16.872Z,10.90
2022-10-28T10:08:04.271Z,9.97
2022-10-28T10:10:46.992Z,8.87
2022-10-28T10:13:16.231Z,11.57
2022-10-28T10:15:45.099Z,9.43
2022-10-28T10:18:16.717Z,7.60
2022-10-28T10:20:46.769Z,9.73
2022-10-28T10:23:24.044Z,8.17
2022-10-28T10:25:58.529Z,6.87
2022-10-28T10:28:26.843Z,7.93
2022-10-28T10:30:55.088Z,12.13
2022-10-28T10:33:26.653Z,7.83
2022-10-28T10:35:59.749Z,8.63
2022-10-28T10:38:27.825Z,9.37
2022-10-28T10:40:55.185Z,9.40
2022-10-28T10:43:40.308Z,8.13
2022-10-28T10:46:18.147Z,10.03
2022-10-28T10:48:45.133Z,7.50
2022-10-28T10:51:22.795Z,11.73
2022-10-28T10:53:50.699Z,10.67
2022-10-28T10:56:25.123Z,9.37
2022-10-28T10:58:53.497Z,8.10
2022-10-28T11:01:25.293Z,9.50
2022-10-28T11:03:54.388Z,7.10
2022-10-28T11:06:30.608Z,7.90
2022-10-28T11:08:59.746Z,10.20
2022-10-28T11:11:37.522Z,8.10
2022-10-28T11:14:07.342Z,6.37
2022-10-28T11:16:34.191Z,7.57
2022-10-28T11:19:15.188Z,6.97
2022-10-28T11:21:51.128Z,12.73
2022-10-28T11:24:36.968Z,6.70
2022-10-28T11:27:15.447Z,8.90
2022-10-28T11:29:42.355Z,6.80
2022-10-28T11:32:16.852Z,6.97
2022-10-28T11:34:58.465Z,7.13
2022-10-28T11:37:31.076Z,6.27
2022-10-28T11:40:03.985Z,5.77
2022-10-28T11:42:36.591Z,5.60
2022-10-28T11:45:09.120Z,8.97
2022-10-28T11:47:41.965Z,5.60
2022-10-28T11:50:13.723Z,6.13
2022-10-28T11:52:59.163Z,5.97
2022-10-28T11:55:25.990Z,5.87
2022-10-28T11:58:01.880Z,7.37
2022-10-28T12:00:38.483Z,5.87
2022-10-28T12:03:14.299Z,5.87
2022-10-28T12:05:44.322Z,6.13
2022-10-28T12:08:11.192Z,9.37
2022-10-28T12:10:53.883Z,5.60
2022-10-28T12:13:29.101Z,9.03
2022-10-28T12:16:14.023Z,8.77
2022-10-28T12:18:59.875Z,5.70
2022-10-28T12:24:03.796Z,5.63
2022-10-28T12:26:56.702Z,7.40
2022-10-28T12:29:25.915Z,6.63
2022-10-28T12:31:56.122Z,5.57
2022-10-28T12:34:26.312Z,5.13
2022-10-28T12:36:57.151Z,5.63
2022-10-28T12:39:50.386Z,7.33
2022-10-28T12:42:17.220Z,6.63
2022-10-28T12:44:45.928Z,6.27
2022-10-28T12:47:16.500Z,6.53
2022-10-28T12:49:43.353Z,8.53
2022-10-28T12:52:28.949Z,5.97
2022-10-28T12:55:01.756Z,4.83
2022-10-28T12:57:29.696Z,5.37
2022-10-28T13:00:19.761Z,9.27
2022-10-28T13:03:01.848Z,6.87
2022-10-28T13:05:38.083Z,5.77
2022-10-28T13:08:10.700Z,6.50
2022-10-28T13:11:06.968Z,4.33
2022-10-28T13:13:45.891Z,4.60
2022-10-28T13:16:31.285Z,5.00
2022-10-28T13:18:58.113Z,4.37
2022-10-28T13:21:31.286Z,5.23
2022-10-28T13:24:04.096Z,5.73
2022-10-28T13:26:35.524Z,6.73
2022-10-28T13:29:04.213Z,4.97
2022-10-28T13:31:37.133Z,4.97
2022-10-28T13:34:04.183Z,3.00
2022-10-28T13:36:35.610Z,3.27
2022-10-28T13:39:04.631Z,5.27
2022-10-28T13:41:36.473Z,3.83
2022-10-28T13:44:09.252Z,6.27
2022-10-28T13:46:54.906Z,4.00
2022-10-28T13:49:24.729Z,4.57
2022-10-28T13:51:52.455Z,6.73
2022-10-28T13:54:31.837Z,9.37
2022-10-28T13:57:04.198Z,4.37
2022-10-28T13:59:32.695Z,5.63
2022-10-28T14:02:28.417Z,4.80
2022-10-28T14:04:59.189Z,6.87
2022-10-28T14:07:31.472Z,4.07
2022-10-28T14:10:20.683Z,7.30
2022-10-28T14:12:59.256Z,6.30
2022-10-28T14:15:28.851Z,3.83
2022-10-28T14:18:10.213Z,3.70
2022-10-28T14:20:46.079Z,3.37
2022-10-28T14:23:21.726Z,6.53
2022-10-28T14:25:51.755Z,4.70
2022-10-28T14:28:28.386Z,4.63
2022-10-28T14:31:14.641Z,4.33
2022-10-28T14:33:47.118Z,8.43
2022-10-28T14:36:13.910Z,8.13
2022-10-28T14:38:59.403Z,4.87
2022-10-28T14:41:32.387Z,3.77
2022-10-28T14:44:02.360Z,7.43
2022-10-28T14:46:47.996Z,5.03
2022-10-28T14:49:18.144Z,12.00
2022-10-28T14:51:44.996Z,4.60
2022-10-28T14:54:20.787Z,7.10
2022-10-28T14:56:48.067Z,5.00
2022-10-28T14:59:14.799Z,4.50
2022-10-28T15:01:54.312Z,5.33
2022-10-28T15:04:21.403Z,5.97
2022-10-28T15:06:50.358Z,5.10
2022-10-28T15:09:35.264Z,5.30
2022-10-28T15:12:05.024Z,5.50
2022-10-28T15:14:39.979Z,6.60
2022-10-28T15:17:12.201Z,4.60
2022-10-28T15:19:39.148Z,6.20
2022-10-28T15:22:07.348Z,5.70
2022-10-28T15:24:34.520Z,5.90
2022-10-28T15:27:01.386Z,5.03
2022-10-28T15:29:28.399Z,14.10
2022-10-28T15:32:04.960Z,4.33
2022-10-28T15:34:31.991Z,5.03
2022-10-28T15:39:30.609Z,6.90
2022-10-28T15:41:58.085Z,6.43
2022-10-28T15:44:31.500Z,8.77
2022-10-28T15:46:58.997Z,4.73
2022-10-28T15:49:31.947Z,5.50
2022-10-28T15:52:22.441Z,5.87
2022-10-28T15:54:59.275Z,7.40
2022-10-28T15:57:30.767Z,7.67
2022-10-28T16:00:16.387Z,15.53
2022-10-28T16:02:43.407Z,7.67
2022-10-28T16:05:28.846Z,5.63
2022-10-28T16:07:56.087Z,7.37
2022-10-28T16:10:23.130Z,7.40
2022-10-28T16:12:49.975Z,12.37
2022-10-28T16:15:16.914Z,7.53
2022-10-28T16:17:43.931Z,7.73
2022-10-28T16:20:17.123Z,6.17
2022-10-28T16:22:45.726Z,8.47
2022-10-28T16:25:22.708Z,6.27
2022-10-28T16:27:50.324Z,10.20
2022-10-28T16:30:17.927Z,7.43
2022-10-28T16:32:46.801Z,9.17
2022-10-28T16:35:14.959Z,7.07
2022-10-28T16:37:44.661Z,8.27
2022-10-28T16:40:37.763Z,9.67
2022-10-28T16:43:01.920Z,7.20
2022-10-28T16:45:28.689Z,9.17
2022-10-28T16:47:55.605Z,12.10
2022-10-28T16:50:22.916Z,9.63
2022-10-28T16:52:49.711Z,8.27
2022-10-28T16:55:16.990Z,11.50
2022-10-28T16:57:43.740Z,9.80
2022-10-28T17:00:13.542Z,11.83
2022-10-28T17:02:40.501Z,9.83
2022-10-28T17:05:11.163Z,12.63
2022-10-28T17:07:38.008Z,14.60
2022-10-28T17:10:05.073Z,15.20
2022-10-28T17:12:31.811Z,10.47
2022-10-28T17:14:58.630Z,11.40
2022-10-28T17:17:25.569Z,10.63
2022-10-28T17:19:52.450Z,29.57
2022-10-28T17:22:19.291Z,17.77
2022-10-28T17:24:46.454Z,11.03
2022-10-28T17:27:13.200Z,14.43
2022-10-28T17:29:40.137Z,10.83
2022-10-28T17:32:08.846Z,10.37
2022-10-28T17:34:36.063Z,14.50
2022-10-28T17:37:03.093Z,11.90
2022-10-28T17:39:29.865Z,11.47
2022-10-28T17:41:57.260Z,13.17
2022-10-28T17:44:24.540Z,10.43
2022-10-28T17:46:51.953Z,12.57
2022-10-28T17:49:18.832Z,11.03
2022-10-28T17:51:45.869Z,11.90
2022-10-28T17:54:12.767Z,12.23
2022-10-28T17:56:42.332Z,13.30
2022-10-28T17:59:09.422Z,12.73
2022-10-28T18:01:36.407Z,12.90
2022-10-28T18:04:08.551Z,10.77
2022-10-28T18:06:35.453Z,17.33
2022-10-28T18:09:02.350Z,13.33
2022-10-28T18:11:31.490Z,12.87
2022-10-28T18:13:58.600Z,12.87
2022-10-28T18:16:28.236Z,18.87
2022-10-28T18:18:55.848Z,16.57
2022-10-28T18:21:23.491Z,13.27
2022-10-28T18:23:53.479Z,16.20
2022-10-28T18:26:20.941Z,17.40
2022-10-28T18:28:49.193Z,15.83
2022-10-28T18:31:20.124Z,14.97
2022-10-28T18:34:01.493Z,16.37
2022-10-28T18:36:30.808Z,13.83
2022-10-28T18:38:58.136Z,11.70
2022-10-28T18:41:26.859Z,13.63
2022-10-28T18:43:55.369Z,11.33
2022-10-28T18:46:23.305Z,17.97
2022-10-28T18:48:50.512Z,16.63
2022-10-28T18:51:18.330Z,16.13
2022-10-28T18:53:47.314Z,19.27
2022-10-28T18:56:25.253Z,17.80
2022-10-28T18:58:52.566Z,14.80
2022-10-28T19:01:21.354Z,14.23
2022-10-28T19:03:51.373Z,14.57
2022-10-28T19:06:18.532Z,14.70
2022-10-28T19:08:45.373Z,14.37
2022-10-28T19:11:13.574Z,15.20
2022-10-28T19:13:41.554Z,17.10
2022-10-28T19:16:09.186Z,13.60
2022-10-28T19:18:38.662Z,17.50
2022-10-28T19:21:08.434Z,15.27
2022-10-28T19:23:35.733Z,19.00
2022-10-28T19:26:04.969Z,15.83
2022-10-28T19:28:36.233Z,18.00
2022-10-28T19:31:04.203Z,16.43
2022-10-28T19:33:31.462Z,15.80
2022-10-28T19:36:06.722Z,16.07
2022-10-28T19:38:35.182Z,13.83
2022-10-28T19:41:06.928Z,19.43
2022-10-28T19:43:34.718Z,13.10
2022-10-28T19:46:21.003Z,16.50
2022-10-28T19:48:49.241Z,14.60
2022-10-28T19:51:20.390Z,16.20
2022-10-28T19:53:49.046Z,15.07
2022-10-28T19:56:19.650Z,12.13
2022-10-28T19:58:47.907Z,14.53
2022-10-28T20:01:14.995Z,19.00
2022-10-28T20:03:46.437Z,15.17
2022-10-28T20:06:16.841Z,14.60
2022-10-28T20:08:45.050Z,15.00
2022-10-28T20:11:13.975Z,17.70
2022-10-28T20:13:41.204Z,17.03
2022-10-28T20:16:10.326Z,12.97
2022-10-28T20:18:37.935Z,16.27
2022-10-28T20:21:05.659Z,18.50
2022-10-28T20:23:33.303Z,13.90
2022-10-28T20:26:01.332Z,13.03
2022-10-28T20:28:29.321Z,13.73
2022-10-28T20:31:01.161Z,14.37
2022-10-28T20:33:29.465Z,13.70
2022-10-28T20:35:57.187Z,16.13
2022-10-28T20:38:24.273Z,13.93
2022-10-28T20:40:52.653Z,15.53
2022-10-28T20:43:20.395Z,11.90
2022-10-28T20:45:53.329Z,12.67
2022-10-28T20:48:21.210Z,14.37
2022-10-28T20:50:56.585Z,12.43
2022-10-28T20:53:25.032Z,13.10
2022-10-28T20:55:55.992Z,13.30
2022-10-28T20:58:24.667Z,16.60
2022-10-28T21:00:53.726Z,12.90
2022-10-28T21:03:22.641Z,16.27
2022-10-28T21:05:49.585Z,14.73
2022-10-28T21:08:16.545Z,15.83
2022-10-28T21:10:43.858Z,14.73
2022-10-28T21:13:11.217Z,18.23
2022-10-28T21:15:39.281Z,15.00
2022-10-28T21:18:06.944Z,15.50
2022-10-28T21:20:37.401Z,14.13
2022-10-28T21:23:05.143Z,14.10
2022-10-28T21:25:32.718Z,15.93
2022-10-28T21:28:00.335Z,14.97
2022-10-28T21:30:27.598Z,13.73
2022-10-28T21:32:54.906Z,13.83
2022-10-28T21:35:22.866Z,14.50
2022-10-28T21:37:50.517Z,12.33
2022-10-28T21:40:17.386Z,16.07
2022-10-28T21:42:48.559Z,13.97
2022-10-28T21:45:15.680Z,13.40
2022-10-28T21:47:43.162Z,14.40
2022-10-28T21:50:10.882Z,14.50
2022-10-28T21:52:38.477Z,16.37
2022-10-28T21:55:14.704Z,17.17
2022-10-28T21:57:48.479Z,14.80
2022-10-28T22:00:15.859Z,14.23
2022-10-28T22:02:42.979Z,13.30
2022-10-28T22:05:10.311Z,14.63
2022-10-28T22:07:37.924Z,15.83
2022-10-28T22:10:05.343Z,15.30
2022-10-28T22:12:32.731Z,13.27
2022-10-28T22:14:59.779Z,15.27
2022-10-28T22:17:29.640Z,14.63
2022-10-28T22:19:56.522Z,12.60
2022-10-28T22:22:23.442Z,15.77
2022-10-28T22:24:50.343Z,11.83
2022-10-28T22:27:17.151Z,13.43
2022-10-28T22:29:44.023Z,14.90
2022-10-28T22:32:10.754Z,13.23
2022-10-28T22:34:37.625Z,13.47
2022-10-28T22:37:04.350Z,14.60
2022-10-28T22:39:31.134Z,15.80
2022-10-28T22:41:57.921Z,14.23
2022-10-28T22:44:24.677Z,14.07
2022-10-28T22:46:51.508Z,18.10
2022-10-28T22:49:18.542Z,14.27
2022-10-28T22:51:45.275Z,12.00
2022-10-28T22:54:12.099Z,14.60
2022-10-28T22:56:39.368Z,12.77
2022-10-28T22:59:06.095Z,12.13
2022-10-28T23:01:33.054Z,13.07
2022-10-28T23:04:01.492Z,15.07
2022-10-28T23:06:28.355Z,13.83
2022-10-28T23:08:55.181Z,12.90
2022-10-28T23:11:22.888Z,15.53
2022-10-28T23:13:53.637Z,14.00
2022-10-28T23:16:20.926Z,14.83
2022-10-28T23:18:49.096Z,13.87
2022-10-28T23:21:19.836Z,12.70
2022-10-28T23:23:51.204Z,13.00
2022-10-28T23:26:20.815Z,14.37
2022-10-28T23:28:50.276Z,13.40
2022-10-28T23:31:17.158Z,14.30
2022-10-28T23:33:43.879Z,14.60
2022-10-28T23:36:11.606Z,14.53
2022-10-28T23:38:38.334Z,11.57
2022-10-28T23:41:05.975Z,15.10
2022-10-28T23:43:33.041Z,16.07
2022-10-28T23:46:00.576Z,15.83
2022-10-28T23:48:28.371Z,16.33
2022-10-28T23:50:55.627Z,17.00
2022-10-28T23:53:22.927Z,15.00
2022-10-28T23:55:50.162Z,16.27
2022-10-28T23:58:17.562Z,18.20
